x

Columbia River Bar - 20nm West Of Columbia River Mouth (46029) Wave Buoy

3:50 - Tue 22nd Jul 2014 All times are PDT. -7 hours from GMT.

  • Sig Wave height 3.0ft
  • Swell Direction
  • Peak Period 8s
  • Average Period 8s
  • Wind
    4mph, 7mph gusts
  • Sea Temp 65°f
  • Luft Temp 63°f
  • Sea Pressure 1017.6mb
  • Columbia River Bar - 20nm West Of Columbia River Mouth
  • Columbia River Bar - 20nm West Of Columbia River Mouth

More Historic Weather Station data

Upgrade to MSW Pro to gain access to the past 30 days of data for over 8000 Wavebouys and Weather Stations around the globe.

Join Pro

Comparision Forecast

View Surf forecast
   
Di 07/22 3:50 3ft 8s 8s 4 7 mph 1017.6mb 65f 63f
2:50 3ft 10s 8s 4 7 mph 1018.1mb 65f 63f
1:50 3ft 11s 8s 4 7 mph 1018.1mb 65f 62f
12:50 3.5ft 11s 8s 4 7 mph 1018mb 64f 61f
11:50 3.5ft 11s 8s 7 9 mph 1017.9mb 62f 61f
10:50 3ft 9s 7s 7
mph
1017.7mb 61f 60f
9:50 3.5ft 9s 8s 7 9 mph 1017.4mb 61f 60f
8:50 4ft 10s 8s 7 9 mph 1017.5mb 61f 60f
7:50 3.5ft 11s 8s 9 11 mph 1017mb 61f 59f
6:50 4ft 11s 8s 7 9 mph 1016.7mb 61f 60f
5:50 4ft 10s 8s 7
mph
1016.7mb 60f 59f
4:50 4ft 8s 7s 2 4 mph 1017.1mb 61f 59f
3:50 4.5ft 11s 7s 4
mph
1017.2mb 61f 59f
2:50 4.5ft 11s 7s 2
mph
1017.2mb 61f 59f
1:50 4.5ft 10s 7s 4
mph
1017mb 61f 60f
12:50 4.5ft 11s 7s 4
mph
1016.9mb 62f 60f
Mo 07/21 11:50 4.5ft 9s 7s 4 7 mph 1016.7mb 62f 60f
10:50 4.5ft 10s 7s 7 9 mph 1016.7mb 62f 60f
9:50 4.5ft 9s 7s 9 11 mph 1016.6mb 63f 61f
8:50 4.5ft 10s 7s 9 11 mph 1016.2mb 62f 60f
7:50 4.5ft 9s 7s 11
mph
1016.2mb 62f 61f
6:50 4ft 9s 7s 11
mph
1016.3mb 62f 61f
5:50 4.5ft 9s 7s 13
mph
1016.3mb 63f 61f
4:50 4.5ft 10s 7s 11 13 mph 1016.6mb 63f 61f
3:50 4.5ft 9s 7s 9 11 mph 1017.1mb 62f 61f
2:50 4.5ft 11s 7s 9 11 mph 1017.3mb 64f 61f
1:50 5ft 10s 8s 4 7 mph 1017.6mb 66f 61f
12:50 5ft 10s 7s 4 7 mph 1017.7mb 65f 60f
11:50 4.5ft 10s 8s  -  2 mph 1017.8mb 63f 60f
10:50 5.5ft 10s 8s 2
mph
1017.8mb 62f 60f
9:50 5ft 9s 8s 4
mph
1017.6mb 61f 59f
8:50 6ft 9s 8s 2 4 mph 1017.5mb 61f 59f
7:50 5.5ft 10s 8s 4 7 mph 1017.2mb 60f 60f
6:50 5ft 11s 7s 7 9 mph 1017.1mb 60f 59f
5:50 5ft 9s 7s 4 7 mph 1016.8mb 60f 59f
4:50 5.5ft 11s 8s 4
mph
1016.9mb 60f 58f
3:50 4.5ft 11s 7s  -  2 mph 1016.6mb 60f 59f
2:50 5ft 11s 7s  -  2 mph 1016.6mb 60f 59f
1:50 5.5ft 11s 8s  -  2 mph 1016.7mb 60f 59f
12:50 6ft 11s 8s 4
mph
1016.7mb 60f 59f
So 07/20 11:50 6ft 11s 7s 7 9 mph 1016.4mb 60f 59f
10:50 6ft 9s 8s 7 9 mph 1016.4mb 60f 59f
9:50 5.5ft 9s 8s 9 11 mph 1016.3mb 61f 60f
8:50 6ft 11s 8s 4 7 mph 1016mb 62f 60f
7:50 6ft 11s 7s 4 7 mph 1015.9mb 62f 60f
6:50 6ft 11s 8s 4 7 mph 1016mb 63f 61f
5:50 6.5ft 11s 8s 2 4 mph 1016.1mb 63f 61f
4:50 7ft 10s 8s  -  2 mph 1016.3mb 62f 61f
3:50 6.5ft 11s 8s  -  2 mph 1016.6mb 62f 60f
2:50 6ft 9s 8s  -  2 mph 1016.9mb 62f 59f
1:50 6ft 11s 8s 4
mph
1016.9mb 61f 58f
12:50 7ft 11s 8s  -  mph 1016.8mb 61f 60f
11:50 6ft 10s 7s 2
mph
1016.7mb 61f 58f
10:50 6.5ft 10s 7s  -  2 mph 1016.6mb 61f 59f
9:50 6.5ft 11s 7s 4 7 mph 1016.3mb 60f 58f
8:50 6ft 9s 7s 7 11 mph 1016.2mb 61f 58f
7:50 6ft 10s 7s 2 4 mph 1015.9mb 61f 59f
6:50 6ft 8s 7s 7
mph
1015.7mb 61f 59f
5:50 6ft 9s 7s 16 18 mph 1015.6mb 61f 59f
4:50 6ft 10s 7s 7 9 mph 1015.5mb 61f 60f
3:50 6ft 10s 7s 9 11 mph 1015.6mb 61f 61f
2:50 5.5ft 8s 7s 11 13 mph 1015.8mb 61f 61f
1:50 5ft 9s 7s 11 13 mph 1016mb 61f 61f
12:50 5.5ft 9s 7s 11 13 mph 1016.1mb 61f 61f
Sa 07/19 11:50 5.5ft 10s 7s 9 11 mph 1016.2mb 61f 61f
10:50 5.5ft 9s 7s 9 11 mph 1016.2mb 61f 60f
9:50 6ft 10s 7s 11 16 mph 1016.4mb 61f 61f
8:50 6ft 9s 7s 11
mph
1016.2mb 61f 62f
7:50 6ft 10s 7s 11 13 mph 1016.6mb 61f 61f
6:50 5.5ft 10s 7s 11 13 mph 1017mb 61f 61f
5:50 6ft 10s 7s 11 13 mph 1017.4mb 61f 62f
4:50 5.5ft 9s 7s 11 13 mph 1017.8mb 61f 62f
3:50 5ft 9s 6s 9 11 mph 1018.2mb 62f 62f
2:50 4.5ft 9s 6s 11 13 mph 1018.6mb 61f 61f
1:50 4.5ft 8s 6s 13 16 mph 1019mb 62f 61f
12:50 3.5ft 9s 6s 11 13 mph 1019.1mb 62f 60f
11:50 3.5ft 14s 6s 11
mph
1019.4mb 62f 60f
10:50 3.5ft 6s 5s 9 11 mph 1019.7mb 61f 60f
9:50 3.5ft 7s 6s 7 9 mph 1019.5mb 61f 60f
8:50 3.5ft 6s 5s 4 7 mph 1019.8mb 60f 60f
7:50 3.5ft 15s 6s 4
mph
1019.5mb 60f 60f
6:50 3.5ft 15s 6s 4
mph
1019.5mb 60f 60f
5:50 3.5ft 15s 6s 4 7 mph 1019.5mb 60f 60f
4:50 3.5ft 15s 6s 4
mph
1019.2mb 60f 60f
3:50 3.5ft 15s 6s 7
mph
1019.4mb 61f 60f
2:50 3.5ft 13s 6s 4 7 mph 1019.4mb 61f 60f
1:50 3.5ft 7s 6s 7
mph
1020.1mb 61f 60f
12:50 3.5ft 7s 6s 4 7 mph 1020.3mb 60f 60f